Buoy 46905

sailwx.info

Track history (hours):
 
Tides and Currents Weather Stations Pressure Air Temp Water Temp Dewpoint Dewpoint Depression Visibility Wind Speed Wind Dir Waves Ship Positions

Drifting buoy 46905

Last reported at 2018-Feb-21 14:00 UTC. Time now 2018-Feb-21 15:33 UTC.
Position N 54°10' W 144°14'.

Water temperature 5.3 ° C

Date/timePositionNaut miles runAvg speedWind from/ knotsBaromVisibWave heightAir tempDewpointWater temp
2018-Feb-21 14:00N 54°10' W 144°14'2 2.2 5.3
2018-Feb-21 13:00N 54°10' W 144°17'1 1.2 5.3
2018-Feb-21 12:00N 54°10' W 144°16'2 0.3 5.3
2018-Feb-21 07:00N 54°11' W 144°17'1 0.7 5.4
2018-Feb-21 06:00N 54°11' W 144°18'0 0.4 5.4
2018-Feb-21 05:00N 54°11' W 144°17'0 0.4 5.4
2018-Feb-21 04:00N 54°11' W 144°18'1 0.7 5.4
2018-Feb-21 03:00N 54°12' W 144°19'1 0.7 5.4
2018-Feb-21 02:00N 54°11' W 144°18'1 0.7 5.4
2018-Feb-21 01:00N 54°11' W 144°19'0 0.0 5.4
2018-Feb-21 00:00N 54°11' W 144°19'1 0.7 5.4
2018-Feb-20 23:00N 54°11' W 144°18'0 0.0 5.4
2018-Feb-20 22:00N 54°11' W 144°18'0 0.4 5.4
2018-Feb-20 21:00N 54°11' W 144°19'1 0.3 5.4
2018-Feb-20 19:00N 54°12' W 144°19'1 0.2 5.4
2018-Feb-20 16:00N 54°12' W 144°20'0 0.0 5.4
2018-Feb-20 15:00N 54°12' W 144°20'1 0.6 5.4
2018-Feb-20 14:00N 54°11' W 144°20'2 1.9 5.4
2018-Feb-20 13:00N 54°12' W 144°17'0 0.0 5.4
2018-Feb-20 12:00N 54°12' W 144°17'1 0.2 5.3
2018-Feb-20 08:00N 54°13' W 144°16'0 0.4 5.4
2018-Feb-20 07:00N 54°13' W 144°15'1 0.6 5.4
2018-Feb-20 06:00N 54°13' W 144°15'1 0.9 5.4
2018-Feb-20 05:00N 54°14' W 144°14'1 0.7 5.4
2018-Feb-20 04:00N 54°14' W 144°15'1 0.9 5.4
2018-Feb-20 03:00N 54°14' W 144°16'1 0.7 5.4
2018-Feb-20 02:00N 54°14' W 144°17'0 0.0 5.4
2018-Feb-20 01:00N 54°14' W 144°17'1 1.3 5.4
2018-Feb-20 00:00N 54°13' W 144°16'2 1.5 5.3
2018-Feb-19 23:00N 54°13' W 144°14'1 0.3 5.3
2018-Feb-19 21:00N 54°13' W 144°14'2 0.8 5.3
2018-Feb-19 19:00N 54°14' W 144°13'0 0.0 5.3
2018-Feb-19 18:00N 54°14' W 144°13'1 1.4 5.3
2018-Feb-19 17:00N 54°15' W 144°14'1 0.9 5.3
2018-Feb-19 16:00N 54°16' W 144°15'0 0.0 5.3
2018-Feb-19 15:00N 54°16' W 144°15'1 1.1 5.2
2018-Feb-19 14:00N 54°16' W 144°17'1 0.7 5.2
2018-Feb-19 13:00N 54°16' W 144°17'5 4.9 5.2
2018-Feb-19 12:00N 54°12' W 144°22'0 0.0 5.2
2018-Feb-19 08:00N 54°12' W 144°22'0 0.0 5.2
2018-Feb-19 07:00N 54°12' W 144°22'0 0.4 5.2
2018-Feb-19 06:00N 54°12' W 144°21'1 0.7 5.2
2018-Feb-19 05:00N 54°13' W 144°22'0 0.0 5.2
2018-Feb-19 04:00N 54°13' W 144°22'1 0.7 5.2
2018-Feb-19 03:00N 54°13' W 144°21'1 1.4 5.2
2018-Feb-19 02:00N 54°13' W 144°23'1 0.9 5.2
2018-Feb-19 01:00N 54°13' W 144°25'0 0.0 5.2
2018-Feb-19 00:00N 54°13' W 144°25'1 0.7 5.2
2018-Feb-18 23:00N 54°13' W 144°24'2 1.5 5.2
2018-Feb-18 22:00N 54°13' W 144°26'1 1.4 5.2
2018-Feb-18 21:00N 54°11' W 144°28'0 0.4 5.2
2018-Feb-18 20:00N 54°11' W 144°27'1 0.3 5.2
2018-Feb-18 18:00N 54°11' W 144°28'0 0.0 5.2
2018-Feb-18 17:00N 54°11' W 144°28'0 0.0 5.2
2018-Feb-18 16:00N 54°11' W 144°28'0 0.4 5.2
2018-Feb-18 15:00N 54°11' W 144°27'0 0.4 5.2
2018-Feb-18 14:00N 54°11' W 144°28'1 1.4 5.1
2018-Feb-18 13:00N 54°11' W 144°30'0 0.0 5.1
2018-Feb-18 08:00N 54°11' W 144°30'0 0.0 5.2
2018-Feb-18 07:00N 54°11' W 144°30'0 0.4 5.1
2018-Feb-18 06:00N 54°11' W 144°29'1 0.9 5.2
2018-Feb-18 05:00N 54°11' W 144°31'0 0.0 5.2
2018-Feb-18 04:00N 54°11' W 144°31'1 0.7 5.2
2018-Feb-18 03:00N 54°11' W 144°31'1 0.7 5.2
2018-Feb-18 02:00N 54°11' W 144°31'1 0.7 5.2
2018-Feb-18 01:00N 54°11' W 144°30'0 0.0 5.3
2018-Feb-18 00:00N 54°11' W 144°30'1 0.9 5.3
2018-Feb-17 23:00N 54°11' W 144°29'0 0.4 5.3
2018-Feb-17 22:00N 54°11' W 144°28'1 0.3 5.2
2018-Feb-17 20:00N 54°12' W 144°28'1 0.7 7.4
2018-Feb-17 18:00N 54°13' W 144°29'0 0.4 5.1
2018-Feb-17 17:00N 54°13' W 144°29'0 0.4 5.1
2018-Feb-17 16:00N 54°13' W 144°30'1 0.6 5.1
2018-Feb-17 15:00N 54°14' W 144°30'0 0.0 5.1
2018-Feb-17 14:00N 54°14' W 144°30'2 2.2 5.1
2018-Feb-17 13:00N 54°14' W 144°26'0 0.0 5.1
2018-Feb-17 12:00N 54°14' W 144°26'0 0.0 5.1
2018-Feb-17 08:00N 54°14' W 144°26'1 0.7 5.2
2018-Feb-17 07:00N 54°15' W 144°26'3 2.6 5.2
2018-Feb-17 06:00N 54°17' W 144°24'1 0.6 5.2
2018-Feb-17 05:00N 54°18' W 144°24'1 0.7 5.2
2018-Feb-17 04:00N 54°19' W 144°25'1 1.4 5.2
2018-Feb-17 03:00N 54°20' W 144°26'1 0.7 5.2
2018-Feb-17 02:00N 54°20' W 144°27'2 1.5 5.2
2018-Feb-17 01:00N 54°19' W 144°29'0 0.0 5.2
2018-Feb-17 00:00N 54°19' W 144°29'0 0.3 5.2
2018-Feb-16 23:00N 54°19' W 144°29'3 2.8 5.1
2018-Feb-16 22:00N 54°17' W 144°32'1 0.3 5.0
2018-Feb-16 20:00N 54°17' W 144°32'1 0.7 5.0
2018-Feb-16 19:00N 54°17' W 144°33'1 0.6 5.0
2018-Feb-16 17:00N 54°16' W 144°32'1 0.7 5.0
2018-Feb-16 16:00N 54°16' W 144°33'1 0.7 5.0
2018-Feb-16 15:00N 54°15' W 144°32'0 0.4 5.0
2018-Feb-16 14:00N 54°15' W 144°33'1 0.7 5.0
2018-Feb-16 13:00N 54°15' W 144°32'3 3.1 5.0
2018-Feb-16 12:00N 54°12' W 144°33'1 0.2 5.0
2018-Feb-16 07:00N 54°11' W 144°31'1 0.7 5.1
2018-Feb-16 06:00N 54°12' W 144°32'1 1.4 5.1
2018-Feb-16 05:00N 54°11' W 144°31'1 0.7 5.1
2018-Feb-16 04:00N 54°11' W 144°30'0 0.2 5.1
2018-Feb-16 02:00N 54°11' W 144°29'1 0.7 5.1
2018-Feb-16 01:00N 54°12' W 144°29'1 0.7 5.1
2018-Feb-16 00:00N 54°11' W 144°29'1 0.7 5.1
2018-Feb-15 23:00N 54°12' W 144°29'1 0.6 5.1
2018-Feb-15 22:00N 54°11' W 144°29'1 0.7 5.1
2018-Feb-15 21:00N 54°12' W 144°28'1 1.3 5.1
2018-Feb-15 20:00N 54°11' W 144°29'0 0.0 5.1
2018-Feb-15 19:00N 54°11' W 144°29'1 0.6 5.1
2018-Feb-15 18:00N 54°10' W 144°29'0 0.0 5.1
2018-Feb-15 17:00N 54°10' W 144°29'1 0.7 5.1
2018-Feb-15 15:00N 54°09' W 144°28'1 0.7 5.1
2018-Feb-15 14:00N 54°09' W 144°26'1 0.7 5.1
2018-Feb-15 13:00N 54°08' W 144°27'1 0.7 5.1
2018-Feb-15 12:00N 54°08' W 144°28'0 0.0 5.1
2018-Feb-15 11:00N 54°08' W 144°28'0 0.0 5.1
2018-Feb-15 08:00N 54°08' W 144°28'1 0.7 5.2
2018-Feb-15 07:00N 54°08' W 144°29'0 0.0 5.2
2018-Feb-15 06:00N 54°08' W 144°29'0 0.0 5.2
2018-Feb-15 05:00N 54°08' W 144°29'1 1.3 5.2
2018-Feb-15 04:00N 54°07' W 144°28'0 0.0 5.2
2018-Feb-15 03:00N 54°07' W 144°28'0 0.0 5.2
2018-Feb-15 02:00N 54°07' W 144°28'0 0.0 5.2
2018-Feb-15 01:00N 54°07' W 144°28'1 0.6 5.2
2018-Feb-15 00:00N 54°07' W 144°28'0 0.0 5.2
2018-Feb-14 23:00N 54°07' W 144°28'1 0.5 5.2
2018-Feb-14 21:00N 54°08' W 144°29'0 0.0 5.1
2018-Feb-14 20:00N 54°08' W 144°29'0 0.4 5.1
2018-Feb-14 19:00N 54°08' W 144°30'1 0.9 5.1
2018-Feb-14 18:00N 54°07' W 144°31'0 0.4 4.9
2018-Feb-14 17:00N 54°07' W 144°32'0 0.4 4.9
2018-Feb-14 16:00N 54°07' W 144°32'0 0.4 4.9
2018-Feb-14 15:00N 54°07' W 144°32'1 0.7 5.0
2018-Feb-14 14:00N 54°08' W 144°32'1 0.7 5.0
2018-Feb-14 13:00N 54°08' W 144°34'2 2.1 5.0
2018-Feb-14 12:00N 54°08' W 144°37'0 0.0 5.0
2018-Feb-14 11:00N 54°08' W 144°37'0 0.0 5.0
2018-Feb-14 07:00N 54°08' W 144°37'1 0.7 5.0
2018-Feb-14 06:00N 54°08' W 144°38'0 0.4 5.0
2018-Feb-14 05:00N 54°08' W 144°38'1 0.7 4.9
2018-Feb-14 04:00N 54°09' W 144°39'1 1.1 4.9
2018-Feb-14 03:00N 54°09' W 144°41'1 1.2 4.9
2018-Feb-14 02:00N 54°10' W 144°43'0 0.0 5.0
2018-Feb-14 01:00N 54°10' W 144°43'2 1.5 5.0
2018-Feb-14 00:00N 54°09' W 144°45'0 0.0 5.0
2018-Feb-13 23:00N 54°09' W 144°45'2 1.9 5.1
2018-Feb-13 22:00N 54°11' W 144°46'0 0.0 5.1
2018-Feb-13 21:00N 54°11' W 144°46'1 0.6 5.0
2018-Feb-13 20:00N 54°10' W 144°46'1 0.6 5.0
2018-Feb-13 19:00N 54°11' W 144°46'1 0.9 5.0
2018-Feb-13 18:00N 54°11' W 144°47'0 0.0 4.9
2018-Feb-13 17:00N 54°11' W 144°47'1 0.7 4.9
2018-Feb-13 16:00N 54°12' W 144°48'1 0.7 4.9
2018-Feb-13 15:00N 54°13' W 144°49'2 1.6 5.0
2018-Feb-13 14:00N 54°14' W 144°50'0 0.0 5.0
2018-Feb-13 13:00N 54°14' W 144°50'4 3.9 5.0
2018-Feb-13 12:00N 54°13' W 144°57'0 0.0 5.0
2018-Feb-13 08:00N 54°13' W 144°57'1 0.7 5.1
2018-Feb-13 07:00N 54°13' W 144°56'1 1.2 5.1
2018-Feb-13 06:00N 54°14' W 144°58'1 1.2 5.1
2018-Feb-13 05:00N 54°13' W 144°58'0 0.4 5.1
2018-Feb-13 04:00N 54°13' W 144°57'1 0.7 5.1
2018-Feb-13 03:00N 54°13' W 144°56'1 0.9 5.1
2018-Feb-13 02:00N 54°13' W 144°58'2 1.5 5.0
2018-Feb-13 01:00N 54°13' W 145°00'0 0.0 5.0
2018-Feb-13 00:00N 54°13' W 145°00'0 0.0 5.0
2018-Feb-12 23:00N 54°13' W 145°00'2 1.5 5.0
2018-Feb-12 22:00N 54°13' W 145°02'0 0.0 5.0
2018-Feb-12 21:00N 54°13' W 145°02'0 0.0 5.0
2018-Feb-12 20:00N 54°13' W 145°02'1 1.2 5.0
2018-Feb-12 19:00N 54°12' W 145°04'1 0.9 5.0
2018-Feb-12 18:00N 54°11' W 145°05'1 0.3 5.0
2018-Feb-12 16:00N 54°11' W 145°05'1 0.7 5.0
2018-Feb-12 15:00N 54°10' W 145°06'0 0.4 5.0
2018-Feb-12 14:00N 54°10' W 145°05'3 2.8 5.0
2018-Feb-12 13:00N 54°08' W 145°08'0 0.0 5.0
2018-Feb-12 12:00N 54°08' W 145°08'0 0.0 5.0
2018-Feb-12 08:00N 54°08' W 145°08'1 0.7 5.0
2018-Feb-12 07:00N 54°07' W 145°08'1 0.6 5.0
2018-Feb-12 06:00N 54°07' W 145°08'0 0.4 5.0
2018-Feb-12 05:00N 54°07' W 145°09'1 0.6 5.0
2018-Feb-12 04:00N 54°06' W 145°09'0 0.4 5.1
2018-Feb-12 03:00N 54°06' W 145°08'1 0.7 5.1
2018-Feb-12 02:00N 54°05' W 145°08'1 0.7 5.1
2018-Feb-12 01:00N 54°05' W 145°07'0 0.0 5.1
2018-Feb-12 00:00N 54°05' W 145°07'1 0.7 5.1
2018-Feb-11 23:00N 54°05' W 145°07'0 0.0 5.1
2018-Feb-11 22:00N 54°05' W 145°07'0 0.4 5.1
2018-Feb-11 21:00N 54°05' W 145°07'0 0.4 5.0
2018-Feb-11 20:00N 54°05' W 145°08'0 0.4 5.0
2018-Feb-11 19:00N 54°05' W 145°07'1 0.4 5.0
2018-Feb-11 17:00N 54°05' W 145°08'1 0.7 4.9
2018-Feb-11 16:00N 54°05' W 145°10'1 0.7 4.9
2018-Feb-11 15:00N 54°06' W 145°09'0 0.0 5.0
2018-Feb-11 14:00N 54°06' W 145°09'   5.0
Track history (hours):
 
Tides and Currents Weather Stations Pressure Air Temp Water Temp Dewpoint Dewpoint Depression Visibility Wind Speed Wind Dir Waves Ship Positions

Drifting buoy 46905

Last reported at 2018-Feb-21 14:00 UTC. Time now 2018-Feb-21 15:33 UTC.
Position N 54°10' W 144°14'.

Water temperature 5.3 ° C

Date/timePositionNaut miles runAvg speedWind from/ knotsBaromVisibWave heightAir tempDewpointWater temp
2018-Feb-21 14:00N 54°10' W 144°14'2 2.2 5.3
2018-Feb-21 13:00N 54°10' W 144°17'1 1.2 5.3
2018-Feb-21 12:00N 54°10' W 144°16'2 0.3 5.3
2018-Feb-21 07:00N 54°11' W 144°17'1 0.7 5.4
2018-Feb-21 06:00N 54°11' W 144°18'0 0.4 5.4
2018-Feb-21 05:00N 54°11' W 144°17'0 0.4 5.4
2018-Feb-21 04:00N 54°11' W 144°18'1 0.7 5.4
2018-Feb-21 03:00N 54°12' W 144°19'1 0.7 5.4
2018-Feb-21 02:00N 54°11' W 144°18'1 0.7 5.4
2018-Feb-21 01:00N 54°11' W 144°19'0 0.0 5.4
2018-Feb-21 00:00N 54°11' W 144°19'1 0.7 5.4
2018-Feb-20 23:00N 54°11' W 144°18'0 0.0 5.4
2018-Feb-20 22:00N 54°11' W 144°18'0 0.4 5.4
2018-Feb-20 21:00N 54°11' W 144°19'1 0.3 5.4
2018-Feb-20 19:00N 54°12' W 144°19'1 0.2 5.4
2018-Feb-20 16:00N 54°12' W 144°20'0 0.0 5.4
2018-Feb-20 15:00N 54°12' W 144°20'1 0.6 5.4
2018-Feb-20 14:00N 54°11' W 144°20'2 1.9 5.4
2018-Feb-20 13:00N 54°12' W 144°17'0 0.0 5.4
2018-Feb-20 12:00N 54°12' W 144°17'1 0.2 5.3
2018-Feb-20 08:00N 54°13' W 144°16'0 0.4 5.4
2018-Feb-20 07:00N 54°13' W 144°15'1 0.6 5.4
2018-Feb-20 06:00N 54°13' W 144°15'1 0.9 5.4
2018-Feb-20 05:00N 54°14' W 144°14'1 0.7 5.4
2018-Feb-20 04:00N 54°14' W 144°15'1 0.9 5.4
2018-Feb-20 03:00N 54°14' W 144°16'1 0.7 5.4
2018-Feb-20 02:00N 54°14' W 144°17'0 0.0 5.4
2018-Feb-20 01:00N 54°14' W 144°17'1 1.3 5.4
2018-Feb-20 00:00N 54°13' W 144°16'2 1.5 5.3
2018-Feb-19 23:00N 54°13' W 144°14'1 0.3 5.3
2018-Feb-19 21:00N 54°13' W 144°14'2 0.8 5.3
2018-Feb-19 19:00N 54°14' W 144°13'0 0.0 5.3
2018-Feb-19 18:00N 54°14' W 144°13'1 1.4 5.3
2018-Feb-19 17:00N 54°15' W 144°14'1 0.9 5.3
2018-Feb-19 16:00N 54°16' W 144°15'0 0.0 5.3
2018-Feb-19 15:00N 54°16' W 144°15'1 1.1 5.2
2018-Feb-19 14:00N 54°16' W 144°17'1 0.7 5.2
2018-Feb-19 13:00N 54°16' W 144°17'5 4.9 5.2
2018-Feb-19 12:00N 54°12' W 144°22'0 0.0 5.2
2018-Feb-19 08:00N 54°12' W 144°22'0 0.0 5.2
2018-Feb-19 07:00N 54°12' W 144°22'0 0.4 5.2
2018-Feb-19 06:00N 54°12' W 144°21'1 0.7 5.2
2018-Feb-19 05:00N 54°13' W 144°22'0 0.0 5.2
2018-Feb-19 04:00N 54°13' W 144°22'1 0.7 5.2
2018-Feb-19 03:00N 54°13' W 144°21'1 1.4 5.2
2018-Feb-19 02:00N 54°13' W 144°23'1 0.9 5.2
2018-Feb-19 01:00N 54°13' W 144°25'0 0.0 5.2
2018-Feb-19 00:00N 54°13' W 144°25'1 0.7 5.2
2018-Feb-18 23:00N 54°13' W 144°24'2 1.5 5.2
2018-Feb-18 22:00N 54°13' W 144°26'1 1.4 5.2
2018-Feb-18 21:00N 54°11' W 144°28'0 0.4 5.2
2018-Feb-18 20:00N 54°11' W 144°27'1 0.3 5.2
2018-Feb-18 18:00N 54°11' W 144°28'0 0.0 5.2
2018-Feb-18 17:00N 54°11' W 144°28'0 0.0 5.2
2018-Feb-18 16:00N 54°11' W 144°28'0 0.4 5.2
2018-Feb-18 15:00N 54°11' W 144°27'0 0.4 5.2
2018-Feb-18 14:00N 54°11' W 144°28'1 1.4 5.1
2018-Feb-18 13:00N 54°11' W 144°30'0 0.0 5.1
2018-Feb-18 08:00N 54°11' W 144°30'0 0.0 5.2
2018-Feb-18 07:00N 54°11' W 144°30'0 0.4 5.1
2018-Feb-18 06:00N 54°11' W 144°29'1 0.9 5.2
2018-Feb-18 05:00N 54°11' W 144°31'0 0.0 5.2
2018-Feb-18 04:00N 54°11' W 144°31'1 0.7 5.2
2018-Feb-18 03:00N 54°11' W 144°31'1 0.7 5.2
2018-Feb-18 02:00N 54°11' W 144°31'1 0.7 5.2
2018-Feb-18 01:00N 54°11' W 144°30'0 0.0 5.3
2018-Feb-18 00:00N 54°11' W 144°30'1 0.9 5.3
2018-Feb-17 23:00N 54°11' W 144°29'0 0.4 5.3
2018-Feb-17 22:00N 54°11' W 144°28'1 0.3 5.2
2018-Feb-17 20:00N 54°12' W 144°28'1 0.7 7.4
2018-Feb-17 18:00N 54°13' W 144°29'0 0.4 5.1
2018-Feb-17 17:00N 54°13' W 144°29'0 0.4 5.1
2018-Feb-17 16:00N 54°13' W 144°30'1 0.6 5.1
2018-Feb-17 15:00N 54°14' W 144°30'0 0.0 5.1
2018-Feb-17 14:00N 54°14' W 144°30'2 2.2 5.1
2018-Feb-17 13:00N 54°14' W 144°26'0 0.0 5.1
2018-Feb-17 12:00N 54°14' W 144°26'0 0.0 5.1
2018-Feb-17 08:00N 54°14' W 144°26'1 0.7 5.2
2018-Feb-17 07:00N 54°15' W 144°26'3 2.6 5.2
2018-Feb-17 06:00N 54°17' W 144°24'1 0.6 5.2
2018-Feb-17 05:00N 54°18' W 144°24'1 0.7 5.2
2018-Feb-17 04:00N 54°19' W 144°25'1 1.4 5.2
2018-Feb-17 03:00N 54°20' W 144°26'1 0.7 5.2
2018-Feb-17 02:00N 54°20' W 144°27'2 1.5 5.2
2018-Feb-17 01:00N 54°19' W 144°29'0 0.0 5.2
2018-Feb-17 00:00N 54°19' W 144°29'0 0.3 5.2
2018-Feb-16 23:00N 54°19' W 144°29'3 2.8 5.1
2018-Feb-16 22:00N 54°17' W 144°32'1 0.3 5.0
2018-Feb-16 20:00N 54°17' W 144°32'1 0.7 5.0
2018-Feb-16 19:00N 54°17' W 144°33'1 0.6 5.0
2018-Feb-16 17:00N 54°16' W 144°32'1 0.7 5.0
2018-Feb-16 16:00N 54°16' W 144°33'1 0.7 5.0
2018-Feb-16 15:00N 54°15' W 144°32'0 0.4 5.0
2018-Feb-16 14:00N 54°15' W 144°33'1 0.7 5.0
2018-Feb-16 13:00N 54°15' W 144°32'3 3.1 5.0
2018-Feb-16 12:00N 54°12' W 144°33'1 0.2 5.0
2018-Feb-16 07:00N 54°11' W 144°31'1 0.7 5.1
2018-Feb-16 06:00N 54°12' W 144°32'1 1.4 5.1
2018-Feb-16 05:00N 54°11' W 144°31'1 0.7 5.1
2018-Feb-16 04:00N 54°11' W 144°30'0 0.2 5.1
2018-Feb-16 02:00N 54°11' W 144°29'1 0.7 5.1
2018-Feb-16 01:00N 54°12' W 144°29'1 0.7 5.1
2018-Feb-16 00:00N 54°11' W 144°29'1 0.7 5.1
2018-Feb-15 23:00N 54°12' W 144°29'1 0.6 5.1
2018-Feb-15 22:00N 54°11' W 144°29'1 0.7 5.1
2018-Feb-15 21:00N 54°12' W 144°28'1 1.3 5.1
2018-Feb-15 20:00N 54°11' W 144°29'0 0.0 5.1
2018-Feb-15 19:00N 54°11' W 144°29'1 0.6 5.1
2018-Feb-15 18:00N 54°10' W 144°29'0 0.0 5.1
2018-Feb-15 17:00N 54°10' W 144°29'1 0.7 5.1
2018-Feb-15 15:00N 54°09' W 144°28'1 0.7 5.1
2018-Feb-15 14:00N 54°09' W 144°26'1 0.7 5.1
2018-Feb-15 13:00N 54°08' W 144°27'1 0.7 5.1
2018-Feb-15 12:00N 54°08' W 144°28'0 0.0 5.1
2018-Feb-15 11:00N 54°08' W 144°28'0 0.0 5.1
2018-Feb-15 08:00N 54°08' W 144°28'1 0.7 5.2
2018-Feb-15 07:00N 54°08' W 144°29'0 0.0 5.2
2018-Feb-15 06:00N 54°08' W 144°29'0 0.0 5.2
2018-Feb-15 05:00N 54°08' W 144°29'1 1.3 5.2
2018-Feb-15 04:00N 54°07' W 144°28'0 0.0 5.2
2018-Feb-15 03:00N 54°07' W 144°28'0 0.0 5.2
2018-Feb-15 02:00N 54°07' W 144°28'0 0.0 5.2
2018-Feb-15 01:00N 54°07' W 144°28'1 0.6 5.2
2018-Feb-15 00:00N 54°07' W 144°28'0 0.0 5.2
2018-Feb-14 23:00N 54°07' W 144°28'1 0.5 5.2
2018-Feb-14 21:00N 54°08' W 144°29'0 0.0 5.1
2018-Feb-14 20:00N 54°08' W 144°29'0 0.4 5.1
2018-Feb-14 19:00N 54°08' W 144°30'1 0.9 5.1
2018-Feb-14 18:00N 54°07' W 144°31'0 0.4 4.9
2018-Feb-14 17:00N 54°07' W 144°32'0 0.4 4.9
2018-Feb-14 16:00N 54°07' W 144°32'0 0.4 4.9
2018-Feb-14 15:00N 54°07' W 144°32'1 0.7 5.0
2018-Feb-14 14:00N 54°08' W 144°32'1 0.7 5.0
2018-Feb-14 13:00N 54°08' W 144°34'2 2.1 5.0
2018-Feb-14 12:00N 54°08' W 144°37'0 0.0 5.0
2018-Feb-14 11:00N 54°08' W 144°37'0 0.0 5.0
2018-Feb-14 07:00N 54°08' W 144°37'1 0.7 5.0
2018-Feb-14 06:00N 54°08' W 144°38'0 0.4 5.0
2018-Feb-14 05:00N 54°08' W 144°38'1 0.7 4.9
2018-Feb-14 04:00N 54°09' W 144°39'1 1.1 4.9
2018-Feb-14 03:00N 54°09' W 144°41'1 1.2 4.9
2018-Feb-14 02:00N 54°10' W 144°43'0 0.0 5.0
2018-Feb-14 01:00N 54°10' W 144°43'2 1.5 5.0
2018-Feb-14 00:00N 54°09' W 144°45'0 0.0 5.0
2018-Feb-13 23:00N 54°09' W 144°45'2 1.9 5.1
2018-Feb-13 22:00N 54°11' W 144°46'0 0.0 5.1
2018-Feb-13 21:00N 54°11' W 144°46'1 0.6 5.0
2018-Feb-13 20:00N 54°10' W 144°46'1 0.6 5.0
2018-Feb-13 19:00N 54°11' W 144°46'1 0.9 5.0
2018-Feb-13 18:00N 54°11' W 144°47'0 0.0 4.9
2018-Feb-13 17:00N 54°11' W 144°47'1 0.7 4.9
2018-Feb-13 16:00N 54°12' W 144°48'1 0.7 4.9
2018-Feb-13 15:00N 54°13' W 144°49'2 1.6 5.0
2018-Feb-13 14:00N 54°14' W 144°50'0 0.0 5.0
2018-Feb-13 13:00N 54°14' W 144°50'4 3.9 5.0
2018-Feb-13 12:00N 54°13' W 144°57'0 0.0 5.0
2018-Feb-13 08:00N 54°13' W 144°57'1 0.7 5.1
2018-Feb-13 07:00N 54°13' W 144°56'1 1.2 5.1
2018-Feb-13 06:00N 54°14' W 144°58'1 1.2 5.1
2018-Feb-13 05:00N 54°13' W 144°58'0 0.4 5.1
2018-Feb-13 04:00N 54°13' W 144°57'1 0.7 5.1
2018-Feb-13 03:00N 54°13' W 144°56'1 0.9 5.1
2018-Feb-13 02:00N 54°13' W 144°58'2 1.5 5.0
2018-Feb-13 01:00N 54°13' W 145°00'0 0.0 5.0
2018-Feb-13 00:00N 54°13' W 145°00'0 0.0 5.0
2018-Feb-12 23:00N 54°13' W 145°00'2 1.5 5.0
2018-Feb-12 22:00N 54°13' W 145°02'0 0.0 5.0
2018-Feb-12 21:00N 54°13' W 145°02'0 0.0 5.0
2018-Feb-12 20:00N 54°13' W 145°02'1 1.2 5.0
2018-Feb-12 19:00N 54°12' W 145°04'1 0.9 5.0
2018-Feb-12 18:00N 54°11' W 145°05'1 0.3 5.0
2018-Feb-12 16:00N 54°11' W 145°05'1 0.7 5.0
2018-Feb-12 15:00N 54°10' W 145°06'0 0.4 5.0
2018-Feb-12 14:00N 54°10' W 145°05'3 2.8 5.0
2018-Feb-12 13:00N 54°08' W 145°08'0 0.0 5.0
2018-Feb-12 12:00N 54°08' W 145°08'0 0.0 5.0
2018-Feb-12 08:00N 54°08' W 145°08'1 0.7 5.0
2018-Feb-12 07:00N 54°07' W 145°08'1 0.6 5.0
2018-Feb-12 06:00N 54°07' W 145°08'0 0.4 5.0
2018-Feb-12 05:00N 54°07' W 145°09'1 0.6 5.0
2018-Feb-12 04:00N 54°06' W 145°09'0 0.4 5.1
2018-Feb-12 03:00N 54°06' W 145°08'1 0.7 5.1
2018-Feb-12 02:00N 54°05' W 145°08'1 0.7 5.1
2018-Feb-12 01:00N 54°05' W 145°07'0 0.0 5.1
2018-Feb-12 00:00N 54°05' W 145°07'1 0.7 5.1
2018-Feb-11 23:00N 54°05' W 145°07'0 0.0 5.1
2018-Feb-11 22:00N 54°05' W 145°07'0 0.4 5.1
2018-Feb-11 21:00N 54°05' W 145°07'0 0.4 5.0
2018-Feb-11 20:00N 54°05' W 145°08'0 0.4 5.0
2018-Feb-11 19:00N 54°05' W 145°07'1 0.4 5.0
2018-Feb-11 17:00N 54°05' W 145°08'1 0.7 4.9
2018-Feb-11 16:00N 54°05' W 145°10'1 0.7 4.9
2018-Feb-11 15:00N 54°06' W 145°09'0 0.0 5.0
2018-Feb-11 14:00N 54°06' W 145°09'   5.0

Dump ship's entire track history